Time;durP1;ratioP1;P1;durP2;ratioP2;P2;SDS_P1;SDS_P2;PMS_P1;PMS_P2;Temp;Humidity;BMP_temperature;BMP_pressure;BME280_temperature;BME280_humidity;BME280_pressure;Samples;Min_cycle;Max_cycle;Signal;HPM_P1;HPM_P2
2022/10/12 00:00:14;;;;;;;5.07;4.68;;;;;;;7.38;92.65;99347.38;4122801;28;20213;-53
2022/10/12 00:02:15;;;;;;;6.80;6.18;;;;;;;7.38;92.10;99350.09;4120927;28;20298;-53
2022/10/12 00:04:17;;;;;;;6.85;6.25;;;;;;;7.35;92.85;99350.53;4105305;28;20319;-53
2022/10/12 00:06:21;;;;;;;7.50;6.75;;;;;;;7.37;92.32;99342.97;4092721;28;20211;-53
2022/10/12 00:08:23;;;;;;;5.63;5.18;;;;;;;7.35;92.16;99345.06;4120900;28;20268;-51
2022/10/12 00:10:24;;;;;;;6.07;4.28;;;;;;;7.33;92.81;99347.16;4105851;28;20570;-52
2022/10/12 00:12:26;;;;;;;5.70;4.13;;;;;;;7.31;91.97;99343.81;4123989;28;20293;-52
2022/10/12 00:14:28;;;;;;;6.88;4.78;;;;;;;7.18;92.45;99347.38;4120591;28;20234;-53
2022/10/12 00:16:30;;;;;;;5.13;4.68;;;;;;;7.14;92.29;99347.97;4106880;28;20290;-53
2022/10/12 00:18:32;;;;;;;4.40;4.03;;;;;;;7.10;92.52;99339.38;4121299;28;20206;-53
2022/10/12 00:20:34;;;;;;;7.18;4.50;;;;;;;7.15;93.15;99338.78;4118269;28;20623;-54
2022/10/12 00:22:36;;;;;;;11.85;3.72;;;;;;;7.15;92.91;99338.78;4115609;28;20213;-52
2022/10/12 00:24:37;;;;;;;4.53;3.78;;;;;;;7.16;92.77;99345.91;4116268;28;20249;-54
2022/10/12 00:26:43;;;;;;;7.53;3.25;;;;;;;7.19;92.68;99343.59;4099879;28;20681;-54
2022/10/12 00:28:45;;;;;;;4.60;3.00;;;;;;;7.13;93.14;99340.84;4119247;28;20712;-52
2022/10/12 00:30:47;;;;;;;12.65;3.60;;;;;;;7.05;93.03;99341.06;4100347;28;20705;-54
2022/10/12 00:32:48;;;;;;;3.22;2.92;;;;;;;7.09;92.84;99339.63;4102591;28;20305;-52
2022/10/12 00:34:50;;;;;;;5.18;3.65;;;;;;;7.04;93.14;99342.13;4117411;28;20229;-54
2022/10/12 00:36:54;;;;;;;6.65;3.78;;;;;;;7.08;93.43;99343.38;4118762;28;20206;-54
2022/10/12 00:38:56;;;;;;;3.05;2.78;;;;;;;7.07;93.08;99342.53;4103001;28;20203;-52
2022/10/12 00:40:58;;;;;;;4.13;3.33;;;;;;;7.04;93.07;99340.25;4117421;28;20206;-54
2022/10/12 00:42:59;;;;;;;4.80;4.00;;;;;;;6.92;93.33;99343.75;4117085;28;20206;-54
2022/10/12 00:45:01;;;;;;;3.60;3.30;;;;;;;6.95;93.52;99337.94;4120864;28;20740;-52
2022/10/12 00:47:23;;;;;;;3.97;3.65;;;;;;;6.96;93.52;99345.03;4101413;28;20815;-53
2022/10/12 00:49:25;;;;;;;3.40;2.55;;;;;;;6.86;93.85;99341.88;4102766;28;20206;-51
2022/10/12 00:51:27;;;;;;;4.65;3.40;;;;;;;6.88;93.62;99337.06;4115061;28;20320;-55
2022/10/12 00:53:33;;;;;;;4.30;2.95;;;;;;;6.86;93.35;99344.59;4122463;28;20214;-52
2022/10/12 00:55:42;;;;;;;7.25;3.33;;;;;;;6.83;94.13;99350.47;4123117;28;20264;-52
2022/10/12 00:57:46;;;;;;;5.80;3.30;;;;;;;6.79;93.94;99344.59;4123270;28;20602;-52
2022/10/12 00:59:57;;;;;;;4.00;3.67;;;;;;;6.75;93.37;99348.75;4117879;28;20722;-52
2022/10/12 01:01:59;;;;;;;5.07;4.50;;;;;;;6.74;93.66;99344.34;4100418;28;20740;-53
2022/10/12 01:04:01;;;;;;;9.40;5.95;;;;;;;6.80;93.84;99345.41;4099874;28;20248;-53
2022/10/12 01:06:05;;;;;;;7.93;5.68;;;;;;;6.77;93.57;99345.84;4118504;28;20205;-53
2022/10/12 01:08:07;;;;;;;6.43;3.50;;;;;;;6.73;93.68;99333.69;4118984;28;20213;-54
2022/10/12 01:10:09;;;;;;;6.45;4.25;;;;;;;6.68;93.19;99341.63;4116293;28;20230;-52
2022/10/12 01:12:10;;;;;;;7.35;3.03;;;;;;;6.74;93.34;99343.50;4114335;28;20206;-52
2022/10/12 01:14:12;;;;;;;6.65;3.35;;;;;;;6.66;94.22;99343.69;4113386;28;20719;-53
2022/10/12 01:16:31;;;;;;;4.03;3.00;;;;;;;6.63;94.16;99338.69;4115810;28;20297;-53
2022/10/12 01:18:41;;;;;;;3.70;3.35;;;;;;;6.63;93.62;99333.25;4117166;28;20234;-52
2022/10/12 01:21:01;;;;;;;5.22;3.65;;;;;;;6.58;94.02;99341.19;4103839;28;20292;-52
2022/10/12 01:23:23;;;;;;;11.13;3.40;;;;;;;6.61;94.24;99336.16;4116356;28;20206;-53
2022/10/12 01:26:06;;;;;;;3.10;2.78;;;;;;;6.52;94.34;99339.28;4098064;28;21516;-52
2022/10/12 01:28:22;;;;;;;4.90;3.03;;;;;;;6.56;93.89;99337.84;4114187;28;20245;-52
2022/10/12 01:30:39;;;;;;;4.05;3.42;;;;;;;6.56;94.03;99337.84;4119758;28;20230;-54
2022/10/12 01:32:40;;;;;;;3.47;3.15;;;;;;;6.57;94.32;99328.63;4100597;28;20218;-53
2022/10/12 01:34:58;;;;;;;5.00;3.35;;;;;;;6.54;94.30;99335.31;4099733;28;20230;-54
2022/10/12 01:37:07;;;;;;;3.35;3.05;;;;;;;6.61;93.37;99338.03;4119619;28;20372;-52
2022/10/12 01:39:15;;;;;;;3.65;3.28;;;;;;;6.65;93.23;99331.16;4120967;28;20234;-52
2022/10/12 01:41:37;;;;;;;5.03;3.67;;;;;;;6.59;93.53;99331.97;4121678;28;20206;-53
2022/10/12 01:43:41;;;;;;;5.32;3.65;;;;;;;6.60;93.18;99330.91;4116509;28;20211;-52
2022/10/12 01:45:43;;;;;;;4.68;3.72;;;;;;;6.57;93.09;99334.88;4121273;28;20208;-52
2022/10/12 01:47:48;;;;;;;4.40;3.55;;;;;;;6.65;93.11;99325.72;4118541;28;20659;-53
2022/10/12 01:49:50;;;;;;;7.50;3.33;;;;;;;6.60;92.77;99330.91;4118052;28;20575;-52
2022/10/12 01:51:55;;;;;;;3.58;3.00;;;;;;;6.61;93.13;99335.31;4118599;28;20334;-53
2022/10/12 01:54:02;;;;;;;5.03;2.92;;;;;;;6.54;92.47;99339.91;4118697;28;20236;-52
2022/10/12 01:56:13;;;;;;;8.02;3.25;;;;;;;6.49;92.35;99331.53;4118094;28;20704;-53
2022/10/12 01:58:33;;;;;;;2.88;2.65;;;;;;;6.45;92.82;99328.38;4105693;28;20205;-52
2022/10/12 02:00:41;;;;;;;5.32;3.53;;;;;;;6.41;92.72;99332.53;4116739;28;20240;-53
2022/10/12 02:02:55;;;;;;;3.60;3.05;;;;;;;6.32;92.98;99330.22;4113685;28;20218;-53
2022/10/12 02:05:05;;;;;;;5.57;3.10;;;;;;;6.29;92.88;99330.63;4118468;28;20233;-51
2022/10/12 02:07:28;;;;;;;4.57;3.17;;;;;;;6.24;93.78;99323.06;4120292;28;20235;-53
2022/10/12 02:09:33;;;;;;;2.67;1.90;;;;;;;6.26;93.43;99320.16;4101524;28;20211;-52
2022/10/12 02:11:36;;;;;;;3.00;2.65;;;;;;;6.23;93.76;99317.84;4120085;28;20639;-53
2022/10/12 02:13:43;;;;;;;3.75;3.17;;;;;;;6.21;93.80;99317.19;4102815;28;20246;-54
2022/10/12 02:15:47;;;;;;;5.32;2.45;;;;;;;6.17;94.04;99319.47;4117726;28;20208;-51
2022/10/12 02:17:50;;;;;;;10.38;3.85;;;;;;;6.19;94.19;99313.84;4101768;28;20305;-53
2022/10/12 02:19:56;;;;;;;3.80;3.20;;;;;;;6.11;93.95;99317.59;4117517;28;20710;-52
2022/10/12 02:22:01;;;;;;;3.60;3.30;;;;;;;6.11;94.01;99311.31;4104490;28;21137;-53
2022/10/12 02:24:08;;;;;;;5.93;3.33;;;;;;;6.12;94.47;99307.56;4115700;28;20257;-53
2022/10/12 02:26:11;;;;;;;4.63;3.15;;;;;;;6.19;93.93;99303.81;4088184;28;20311;-52
2022/10/12 02:28:16;;;;;;;2.80;2.60;;;;;;;6.15;94.24;99307.16;4102917;28;20286;-53
2022/10/12 02:30:18;;;;;;;3.40;2.50;;;;;;;6.09;93.86;99303.34;4118268;28;20299;-52
2022/10/12 02:32:30;;;;;;;4.20;2.25;;;;;;;6.12;94.39;99296.69;4101967;28;20211;-52
2022/10/12 02:34:49;;;;;;;2.88;2.63;;;;;;;6.10;94.35;99302.31;4104661;28;20223;-53
2022/10/12 02:36:57;;;;;;;3.80;2.40;;;;;;;6.09;94.01;99292.47;4117480;28;20205;-53
2022/10/12 02:39:06;;;;;;;7.25;3.58;;;;;;;6.17;93.88;99284.16;4104218;28;20233;-52
2022/10/12 02:41:12;;;;;;;4.68;3.33;;;;;;;6.05;94.09;99290.38;4116529;28;20198;-54
2022/10/12 02:43:30;;;;;;;3.47;3.17;;;;;;;6.00;94.64;99284.72;4101128;28;20209;-52
2022/10/12 02:45:31;;;;;;;4.70;4.30;;;;;;;5.94;94.75;99288.22;4116877;28;20660;-51
2022/10/12 02:47:34;;;;;;;4.82;3.88;;;;;;;5.92;94.66;99295.75;4121246;28;20301;-52
2022/10/12 02:49:36;;;;;;;5.10;3.78;;;;;;;5.97;94.89;99287.84;4102689;28;20334;-53
2022/10/12 02:51:39;;;;;;;5.15;3.60;;;;;;;6.00;94.97;99287.44;4106540;28;20231;-54
2022/10/12 02:53:41;;;;;;;4.05;3.70;;;;;;;5.97;94.85;99288.66;4120175;28;20204;-52
2022/10/12 02:55:51;;;;;;;6.95;4.20;;;;;;;6.00;95.18;99287.44;4124836;28;20195;-52
2022/10/12 02:57:53;;;;;;;3.92;3.10;;;;;;;5.97;94.71;99287.84;4123638;28;20289;-53
2022/10/12 02:59:54;;;;;;;2.95;2.72;;;;;;;5.99;94.43;99285.75;4108825;28;20225;-52
2022/10/12 03:01:56;;;;;;;3.85;3.10;;;;;;;5.98;94.88;99284.94;4109227;28;20207;-52
2022/10/12 03:03:58;;;;;;;5.25;2.53;;;;;;;5.99;94.62;99285.75;4123303;28;20687;-52
2022/10/12 03:05:59;;;;;;;3.47;3.20;;;;;;;6.00;94.38;99284.72;4123497;28;20216;-52
2022/10/12 03:08:01;;;;;;;5.07;2.40;;;;;;;6.00;94.13;99273.84;4122077;28;20336;-52
2022/10/12 03:10:03;;;;;;;3.42;2.55;;;;;;;6.01;94.22;99289.09;4122952;28;20582;-52
2022/10/12 03:12:05;;;;;;;8.25;2.92;;;;;;;5.95;93.88;99288.03;4107464;28;20305;-52
2022/10/12 03:14:11;;;;;;;4.00;2.60;;;;;;;5.84;93.70;99293.22;4106358;28;20227;-52
2022/10/12 03:16:13;;;;;;;3.00;2.75;;;;;;;5.83;94.18;99283.41;4126848;28;20276;-52
2022/10/12 03:18:15;;;;;;;3.70;2.65;;;;;;;5.75;93.94;99284.34;4108374;28;20211;-52
2022/10/12 03:20:16;;;;;;;3.80;3.08;;;;;;;5.79;94.07;99284.78;4108035;28;20211;-54
2022/10/12 03:22:18;;;;;;;2.67;2.08;;;;;;;5.80;93.96;99291.91;4124668;28;20337;-55
2022/10/12 03:24:20;;;;;;;3.35;2.70;;;;;;;5.73;93.98;99293.72;4121024;28;20238;-52
2022/10/12 03:26:21;;;;;;;4.50;4.10;;;;;;;5.72;94.09;99295.63;4123864;28;20205;-53
2022/10/12 03:28:23;;;;;;;5.07;4.60;;;;;;;5.77;94.46;99297.75;4106883;28;20221;-52
2022/10/12 03:30:25;;;;;;;8.38;6.70;;;;;;;5.75;94.60;99305.25;4121913;28;20308;-53
2022/10/12 03:32:27;;;;;;;8.77;6.32;;;;;;;5.76;94.68;99294.16;4123542;28;20794;-52
2022/10/12 03:34:28;;;;;;;7.28;5.55;;;;;;;5.70;94.76;99296.88;4122012;28;20232;-53
2022/10/12 03:36:31;;;;;;;4.45;3.70;;;;;;;5.76;94.05;99296.06;4123756;28;20254;-52
2022/10/12 03:38:32;;;;;;;4.00;3.47;;;;;;;5.77;94.64;99289.59;4123891;28;20257;-52
2022/10/12 03:40:34;;;;;;;6.88;3.75;;;;;;;5.73;94.61;99304.59;4123896;28;20208;-52
2022/10/12 03:42:36;;;;;;;7.80;7.10;;;;;;;5.67;94.92;99292.66;4104354;28;20210;-53
2022/10/12 03:44:38;;;;;;;8.63;5.72;;;;;;;5.69;95.13;99296.00;4120166;28;20353;-51
2022/10/12 03:46:39;;;;;;;5.53;4.68;;;;;;;5.74;95.36;99298.13;4125338;28;20252;-51
2022/10/12 03:48:41;;;;;;;12.20;5.28;;;;;;;5.69;95.58;99295.19;4109310;28;20694;-52
2022/10/12 03:50:50;;;;;;;6.97;5.22;;;;;;;5.69;95.69;99287.03;4106060;28;20219;-52
2022/10/12 03:52:52;;;;;;;7.13;4.10;;;;;;;5.67;95.39;99298.09;4122488;28;20257;-52
2022/10/12 03:54:53;;;;;;;4.18;3.25;;;;;;;5.67;95.38;99297.25;4121661;28;20222;-52
2022/10/12 03:56:55;;;;;;;4.32;3.58;;;;;;;5.69;95.32;99297.91;4122544;28;20219;-54
2022/10/12 03:58:57;;;;;;;3.83;3.33;;;;;;;5.70;95.30;99296.88;4120831;28;20692;-52
2022/10/12 04:00:59;;;;;;;3.70;3.05;;;;;;;5.68;95.13;99293.50;4104046;28;20930;-54
2022/10/12 04:03:03;;;;;;;3.40;2.97;;;;;;;5.64;94.92;99300.38;4118371;28;20301;-53
2022/10/12 04:05:05;;;;;;;3.17;2.72;;;;;;;5.61;94.80;99292.63;4101950;28;20692;-52
2022/10/12 04:07:07;;;;;;;3.28;2.75;;;;;;;5.56;95.13;99292.41;4102953;28;20962;-52
2022/10/12 04:09:09;;;;;;;5.78;3.45;;;;;;;5.64;95.00;99292.22;4115422;28;20212;-52
2022/10/12 04:11:11;;;;;;;7.65;3.53;;;;;;;5.63;95.00;99299.53;4118198;28;20248;-51
2022/10/12 04:13:12;;;;;;;4.18;2.55;;;;;;;5.59;95.34;99294.69;4118438;28;20571;-52
2022/10/12 04:15:16;;;;;;;6.00;2.90;;;;;;;5.56;95.01;99295.13;4116079;28;20316;-52
2022/10/12 04:17:20;;;;;;;2.88;2.40;;;;;;;5.55;95.42;99304.28;4102404;28;20249;-52
2022/10/12 04:19:22;;;;;;;5.47;1.92;;;;;;;5.55;95.21;99298.88;4121183;28;20338;-53
2022/10/12 04:21:24;;;;;;;2.90;2.13;;;;;;;5.61;95.30;99303.47;4102100;28;20254;-55
2022/10/12 04:23:26;;;;;;;4.95;2.20;;;;;;;5.63;94.93;99307.66;4098837;28;20199;-52
2022/10/12 04:25:28;;;;;;;6.93;2.65;;;;;;;5.65;94.52;99299.34;4101463;28;20207;-53
2022/10/12 04:27:31;;;;;;;2.60;2.40;;;;;;;5.62;94.79;99299.75;4118373;28;20260;-53
2022/10/12 04:29:32;;;;;;;4.25;1.90;;;;;;;5.62;94.12;99305.19;4119410;28;20214;-53
2022/10/12 04:31:34;;;;;;;2.50;2.30;;;;;;;5.58;94.16;99298.44;4102799;28;20803;-51
2022/10/12 04:33:35;;;;;;;5.43;2.13;;;;;;;5.56;94.30;99297.81;4122182;28;20690;-53
2022/10/12 04:35:37;;;;;;;2.72;2.15;;;;;;;5.58;94.44;99301.16;4117815;28;20207;-53
2022/10/12 04:37:39;;;;;;;3.67;2.63;;;;;;;5.52;93.82;99304.69;4119254;28;20244;-54
2022/10/12 04:39:41;;;;;;;3.22;2.90;;;;;;;5.50;94.16;99309.47;4121854;28;20238;-53
2022/10/12 04:41:43;;;;;;;2.50;2.25;;;;;;;5.45;94.09;99303.78;4116516;28;20205;-52
2022/10/12 04:43:44;;;;;;;3.72;2.20;;;;;;;5.46;94.54;99300.88;4103130;28;20236;-53
2022/10/12 04:45:57;;;;;;;3.58;2.35;;;;;;;5.46;94.04;99300.03;4113674;28;20244;-53
2022/10/12 04:47:59;;;;;;;2.80;2.47;;;;;;;5.45;94.03;99298.38;4116142;28;20720;-54
2022/10/12 04:50:01;;;;;;;4.00;3.33;;;;;;;5.43;94.20;99295.84;4116505;28;20216;-51
2022/10/12 04:52:03;;;;;;;3.63;3.20;;;;;;;5.29;94.26;99299.50;4102148;28;20325;-54
2022/10/12 04:54:04;;;;;;;4.95;3.70;;;;;;;5.29;94.42;99295.97;4101563;28;20700;-53
2022/10/12 04:56:06;;;;;;;3.78;2.95;;;;;;;5.25;94.53;99297.38;4119164;28;20791;-53
2022/10/12 04:58:09;;;;;;;3.65;3.28;;;;;;;5.30;94.67;99300.34;4104783;28;20209;-52
2022/10/12 05:00:11;;;;;;;4.32;2.85;;;;;;;5.29;94.73;99298.69;4122967;28;20221;-52
2022/10/12 05:02:13;;;;;;;3.63;2.95;;;;;;;5.31;94.63;99299.31;4121772;28;20203;-53
2022/10/12 05:04:15;;;;;;;3.85;2.40;;;;;;;5.33;94.69;99305.38;4105975;28;20222;-52
2022/10/12 05:06:17;;;;;;;3.10;2.15;;;;;;;5.25;95.03;99308.25;4106132;28;20669;-53
2022/10/12 05:08:18;;;;;;;4.35;2.53;;;;;;;5.26;94.97;99304.47;4121662;28;20288;-53
2022/10/12 05:10:20;;;;;;;4.25;2.58;;;;;;;5.30;95.33;99311.22;4123939;28;20643;-54
2022/10/12 05:12:25;;;;;;;3.35;2.55;;;;;;;5.31;95.47;99307.44;4122671;28;20259;-53
2022/10/12 05:14:26;;;;;;;4.95;2.90;;;;;;;5.34;95.00;99299.75;4106324;28;20246;-53
2022/10/12 05:16:33;;;;;;;4.38;2.85;;;;;;;5.36;95.42;99299.56;4106383;28;20230;-54
2022/10/12 05:18:35;;;;;;;5.10;3.15;;;;;;;5.52;95.47;99300.09;4121676;28;20694;-51
2022/10/12 05:20:37;;;;;;;3.92;3.05;;;;;;;5.37;96.97;99295.81;4120415;28;20297;-52
2022/10/12 05:22:39;;;;;;;7.90;4.05;;;;;;;5.45;96.92;99298.38;4107209;28;20203;-54
2022/10/12 05:24:41;;;;;;;15.88;4.88;;;;;;;5.44;96.51;99297.50;4106988;28;20293;-54
2022/10/12 05:26:43;;;;;;;12.93;4.88;;;;;;;5.44;96.59;99302.94;4121046;28;20233;-52
2022/10/12 05:28:45;;;;;;;7.35;4.43;;;;;;;5.53;96.72;99301.78;4107085;28;20616;-52
2022/10/12 05:30:51;;;;;;;11.32;4.13;;;;;;;5.58;96.93;99310.16;4120311;28;20929;-52
2022/10/12 05:32:53;;;;;;;11.65;3.72;;;;;;;5.57;97.64;99304.94;4120029;28;20234;-52
2022/10/12 05:34:55;;;;;;;7.10;2.90;;;;;;;5.63;97.34;99301.41;4124424;28;20247;-52
2022/10/12 05:36:57;;;;;;;11.30;2.85;;;;;;;5.66;97.41;99301.00;4103250;28;20214;-52
2022/10/12 05:38:58;;;;;;;10.23;3.10;;;;;;;5.64;97.55;99303.09;4122974;28;20601;-53
2022/10/12 05:41:00;;;;;;;3.50;2.47;;;;;;;5.67;97.54;99302.69;4120411;28;20205;-52
2022/10/12 05:43:02;;;;;;;11.15;2.25;;;;;;;5.74;97.98;99295.41;4119583;28;20305;-54
2022/10/12 05:45:04;;;;;;;9.02;2.60;;;;;;;5.68;97.51;99296.19;4123331;28;20230;-54
2022/10/12 05:47:06;;;;;;;8.13;2.67;;;;;;;5.76;98.24;99306.94;4102921;28;20633;-53
2022/10/12 05:49:08;;;;;;;4.32;2.97;;;;;;;5.72;97.92;99302.91;4104343;28;20239;-53
2022/10/12 05:51:10;;;;;;;6.05;3.38;;;;;;;5.73;98.33;99310.03;4117447;28;20660;-52
2022/10/12 05:53:12;;;;;;;6.25;4.35;;;;;;;5.87;98.47;99304.50;4101877;28;20241;-51
2022/10/12 05:55:14;;;;;;;7.40;3.53;;;;;;;5.43;100.00;99305.88;4122273;28;20289;-52
2022/10/12 05:57:19;;;;;;;13.30;4.88;;;;;;;5.47;100.00;99307.13;4103786;28;20217;-52
2022/10/12 05:59:21;;;;;;;13.23;3.72;;;;;;;5.65;100.00;99307.47;4104937;28;20246;-54
2022/10/12 06:01:23;;;;;;;8.98;4.75;;;;;;;5.74;100.00;99298.13;4103902;28;20302;-54
2022/10/12 06:03:25;;;;;;;7.57;4.90;;;;;;;5.77;100.00;99303.16;4118610;28;20264;-54
2022/10/12 06:05:28;;;;;;;8.52;5.13;;;;;;;5.77;100.00;99293.13;4102469;28;20243;-53
2022/10/12 06:07:30;;;;;;;17.52;11.23;;;;;;;5.79;99.91;99296.53;4121039;28;20672;-53
2022/10/12 06:09:32;;;;;;;16.58;13.55;;;;;;;5.82;100.00;99300.72;4121038;28;20292;-53
2022/10/12 06:11:34;;;;;;;16.73;13.30;;;;;;;5.83;99.78;99302.41;4103161;28;20249;-54
2022/10/12 06:13:37;;;;;;;19.65;14.68;;;;;;;5.87;99.89;99298.22;4118880;28;20213;-53
2022/10/12 06:15:39;;;;;;;22.58;15.30;;;;;;;5.89;99.61;99301.59;4101211;28;20293;-53
2022/10/12 06:17:40;;;;;;;11.27;9.77;;;;;;;5.89;99.84;99301.59;4102844;28;20364;-53
2022/10/12 06:19:42;;;;;;;8.48;6.22;;;;;;;5.89;99.78;99293.47;4111912;28;20328;-53
2022/10/12 06:21:44;;;;;;;19.38;7.32;;;;;;;5.92;99.97;99293.03;4116650;28;20252;-54
2022/10/12 06:23:46;;;;;;;13.00;3.33;;;;;;;5.93;99.29;99297.41;4117938;28;20229;-52
2022/10/12 06:25:49;;;;;;;7.28;3.92;;;;;;;5.88;98.76;99294.50;4116868;28;20213;-52
2022/10/12 06:27:54;;;;;;;15.23;6.13;;;;;;;5.93;99.17;99300.13;4118021;28;20210;-52
2022/10/12 06:29:55;;;;;;;10.05;5.13;;;;;;;5.96;99.54;99302.47;4123345;28;20210;-52
2022/10/12 06:31:57;;;;;;;6.35;4.43;;;;;;;5.93;99.49;99306.44;4125344;28;20230;-52
2022/10/12 06:33:59;;;;;;;5.60;3.53;;;;;;;5.95;98.88;99311.66;4121317;28;20225;-52
2022/10/12 06:36:01;;;;;;;12.40;3.75;;;;;;;5.95;99.03;99303.50;4106708;28;20974;-53
2022/10/12 06:38:03;;;;;;;5.07;2.97;;;;;;;5.88;99.05;99300.75;4123326;28;20212;-52
2022/10/12 06:40:05;;;;;;;4.55;3.05;;;;;;;5.98;99.62;99305.81;4106708;28;20215;-53
2022/10/12 06:42:07;;;;;;;6.00;5.30;;;;;;;6.01;99.94;99300.81;4104750;28;20306;-52
2022/10/12 06:44:09;;;;;;;4.63;2.80;;;;;;;6.06;99.92;99308.34;4123517;28;20245;-53
2022/10/12 06:46:11;;;;;;;3.63;2.90;;;;;;;6.18;100.00;99306.75;4102057;28;20235;-52
2022/10/12 06:48:13;;;;;;;4.82;3.00;;;;;;;6.22;100.00;99308.03;4105089;28;20234;-52
2022/10/12 06:50:19;;;;;;;6.70;3.00;;;;;;;6.18;100.00;99313.03;4120045;28;20288;-53
2022/10/12 06:52:21;;;;;;;7.50;3.58;;;;;;;6.19;100.00;99316.56;4103335;28;20300;-54
2022/10/12 06:54:22;;;;;;;3.85;2.70;;;;;;;6.25;100.00;99310.31;4106207;28;20841;-53
2022/10/12 06:56:24;;;;;;;5.30;4.28;;;;;;;6.32;100.00;99312.03;4104445;28;20604;-53
2022/10/12 06:58:26;;;;;;;4.53;3.67;;;;;;;6.35;100.00;99303.47;4118708;28;20304;-53
2022/10/12 07:00:28;;;;;;;3.80;3.00;;;;;;;6.39;100.00;99320.19;4119886;28;20206;-55
2022/10/12 07:02:29;;;;;;;4.60;3.97;;;;;;;6.44;100.00;99298.69;4103666;28;20249;-52
2022/10/12 07:04:31;;;;;;;5.10;3.90;;;;;;;6.53;100.00;99311.03;4118734;28;20766;-53
2022/10/12 07:06:33;;;;;;;6.35;3.78;;;;;;;6.59;100.00;99311.06;4120850;28;20233;-52
2022/10/12 07:08:36;;;;;;;4.32;3.63;;;;;;;6.66;100.00;99314.63;4124655;28;20230;-51
2022/10/12 07:10:37;;;;;;;6.93;4.68;;;;;;;6.70;100.00;99313.16;4108652;28;20287;-53
2022/10/12 07:12:39;;;;;;;4.75;4.28;;;;;;;6.73;100.00;99318.22;4121351;28;20949;-52
2022/10/12 07:14:41;;;;;;;5.32;4.70;;;;;;;6.85;100.00;99313.00;4116894;28;20809;-51
2022/10/12 07:16:43;;;;;;;7.50;5.53;;;;;;;6.95;100.00;99316.16;4106637;28;20245;-51
2022/10/12 07:18:45;;;;;;;7.05;5.55;;;;;;;6.98;100.00;99315.72;4122269;28;20237;-51
2022/10/12 07:20:46;;;;;;;7.22;5.32;;;;;;;7.02;100.00;99311.56;4106362;28;20243;-52
2022/10/12 07:22:48;;;;;;;5.75;4.18;;;;;;;7.00;100.00;99321.78;4109584;28;20286;-51
2022/10/12 07:24:50;;;;;;;8.27;3.53;;;;;;;7.02;100.00;99322.44;4110309;28;20685;-52
2022/10/12 07:26:52;;;;;;;9.52;3.85;;;;;;;7.06;100.00;99323.69;4124969;28;20716;-53
2022/10/12 07:28:53;;;;;;;6.45;3.70;;;;;;;7.12;100.00;99321.00;4123431;28;20695;-52
2022/10/12 07:31:00;;;;;;;5.55;2.75;;;;;;;7.29;100.00;99324.13;4109537;28;20732;-52
2022/10/12 07:33:02;;;;;;;9.50;3.90;;;;;;;7.13;100.00;99330.81;4124488;28;20221;-51
2022/10/12 07:35:04;;;;;;;5.90;3.40;;;;;;;7.14;100.00;99331.63;4124587;28;20225;-53
2022/10/12 07:37:08;;;;;;;13.38;3.00;;;;;;;7.05;100.00;99322.88;4127984;28;20209;-53
2022/10/12 07:39:10;;;;;;;6.32;3.05;;;;;;;7.26;100.00;99324.53;4124580;28;20644;-52
2022/10/12 07:41:13;;;;;;;5.13;3.08;;;;;;;7.30;100.00;99325.81;4124985;28;20298;-51
2022/10/12 07:43:15;;;;;;;4.88;2.70;;;;;;;7.39;100.00;99330.84;4122995;28;20572;-52
2022/10/12 07:45:17;;;;;;;6.68;3.38;;;;;;;7.43;100.00;99323.91;4109696;28;20712;-51
2022/10/12 07:47:19;;;;;;;5.25;2.50;;;;;;;7.68;100.00;99330.38;4110222;28;20205;-53
2022/10/12 07:49:21;;;;;;;9.07;3.45;;;;;;;7.99;100.00;99335.13;4129573;28;20240;-52
2022/10/12 07:51:23;;;;;;;5.70;3.50;;;;;;;8.14;100.00;99335.72;4111573;28;20202;-52
2022/10/12 07:53:25;;;;;;;6.45;3.65;;;;;;;8.30;100.00;99336.09;4123342;28;20324;-52
2022/10/12 07:55:28;;;;;;;4.75;3.78;;;;;;;8.43;99.59;99336.06;4121682;28;20297;-51
2022/10/12 07:57:30;;;;;;;3.53;2.50;;;;;;;8.54;99.22;99331.84;4106083;28;21286;-52
2022/10/12 07:59:31;;;;;;;4.72;2.90;;;;;;;8.76;97.81;99330.44;4121818;28;20245;-51
2022/10/12 08:01:33;;;;;;;5.93;3.33;;;;;;;9.06;97.70;99342.44;4104749;28;20203;-51
2022/10/12 08:03:38;;;;;;;5.28;2.80;;;;;;;9.55;97.93;99345.22;4122532;28;20275;-51
2022/10/12 08:05:41;;;;;;;5.32;2.58;;;;;;;9.69;95.51;99335.84;4105108;28;20213;-52
2022/10/12 08:07:43;;;;;;;6.60;2.55;;;;;;;9.70;94.80;99329.31;4111269;28;20210;-52
2022/10/12 08:09:47;;;;;;;4.65;2.80;;;;;;;9.80;94.38;99337.81;4122906;28;20246;-52
2022/10/12 08:11:48;;;;;;;8.20;2.65;;;;;;;10.02;93.72;99334.44;4118991;28;20222;-52
2022/10/12 08:13:50;;;;;;;3.80;2.13;;;;;;;10.25;94.10;99331.06;4121163;28;20235;-51
2022/10/12 08:15:52;;;;;;;6.15;2.05;;;;;;;10.60;91.75;99334.84;4121236;28;20297;-50
2022/10/12 08:17:53;;;;;;;4.82;2.30;;;;;;;10.40;90.94;99339.72;4117748;28;20211;-51
2022/10/12 08:19:55;;;;;;;11.18;2.78;;;;;;;10.58;92.12;99331.50;4118135;28;20210;-52
2022/10/12 08:21:56;;;;;;;5.68;2.58;;;;;;;10.91;93.81;99325.34;4116308;28;20309;-51
2022/10/12 08:23:58;;;;;;;5.22;2.22;;;;;;;11.69;90.77;99332.34;4118964;28;20222;-51
2022/10/12 08:26:00;;;;;;;2.90;2.17;;;;;;;12.29;88.07;99331.03;4121882;28;20223;-52
2022/10/12 08:28:02;;;;;;;4.43;2.35;;;;;;;12.83;84.45;99333.25;4123050;28;20210;-52
2022/10/12 08:30:05;;;;;;;7.03;2.00;;;;;;;13.25;82.73;99336.56;4119453;28;20519;-51
2022/10/12 08:32:07;;;;;;;2.78;1.95;;;;;;;13.58;81.17;99333.88;4119319;28;21076;-51
2022/10/12 08:34:08;;;;;;;3.08;2.45;;;;;;;14.14;79.04;99326.25;4103470;28;20283;-52
2022/10/12 08:36:11;;;;;;;6.13;2.05;;;;;;;14.28;77.36;99322.06;4118468;28;20212;-51
2022/10/12 08:38:13;;;;;;;7.00;3.00;;;;;;;14.25;77.10;99333.59;4104527;28;20237;-50
2022/10/12 08:40:18;;;;;;;7.85;2.28;;;;;;;13.80;78.95;99327.38;4119824;28;20210;-50
2022/10/12 08:42:54;;;;;;;3.63;2.53;;;;;;;13.88;78.24;99326.09;4106089;28;20407;-48
2022/10/12 08:45:21;;;;;;;5.53;2.50;;;;;;;13.84;77.37;99325.75;4108294;28;20227;-48
2022/10/12 08:47:43;;;;;;;4.75;1.70;;;;;;;13.46;76.57;99333.94;4103607;28;20213;-49
2022/10/12 08:49:45;;;;;;;3.70;2.33;;;;;;;13.69;77.43;99319.22;4106529;28;20226;-50
2022/10/12 08:51:51;;;;;;;5.25;2.53;;;;;;;13.85;76.97;99330.22;4120449;28;20727;-49
2022/10/12 08:54:05;;;;;;;4.45;2.70;;;;;;;14.14;76.86;99326.25;4120246;28;20329;-50
2022/10/12 08:56:08;;;;;;;4.05;1.75;;;;;;;14.04;76.08;99325.25;4118857;28;20544;-49
2022/10/12 08:58:16;;;;;;;3.92;2.50;;;;;;;13.86;76.94;99318.13;4104500;28;20214;-49
2022/10/12 09:00:18;;;;;;;5.32;2.00;;;;;;;13.44;79.33;99333.34;4121854;28;20213;-49
2022/10/12 09:02:42;;;;;;;4.72;1.88;;;;;;;13.61;79.33;99341.59;4105181;28;20222;-50
2022/10/12 09:04:59;;;;;;;8.38;1.65;;;;;;;13.11;79.70;99335.22;4116632;28;20235;-52
2022/10/12 09:07:08;;;;;;;4.05;2.03;;;;;;;12.66;81.13;99342.53;4102238;28;20289;-51
2022/10/12 09:09:19;;;;;;;5.40;1.85;;;;;;;12.73;81.71;99343.22;4104561;28;20218;-51
2022/10/12 09:11:45;;;;;;;4.30;2.20;;;;;;;12.91;81.29;99345.78;4118038;28;20304;-49
2022/10/12 09:13:56;;;;;;;3.80;2.05;;;;;;;12.86;81.99;99340.19;4116300;28;20292;-50
2022/10/12 09:16:05;;;;;;;5.53;2.35;;;;;;;12.97;81.20;99345.66;4102998;28;20584;-50
2022/10/12 09:18:35;;;;;;;5.15;2.13;;;;;;;12.68;81.99;99341.19;4102100;28;20315;-51
2022/10/12 09:20:50;;;;;;;4.72;2.13;;;;;;;12.75;81.65;99341.03;4117245;28;20201;-52
2022/10/12 09:22:58;;;;;;;10.93;2.42;;;;;;;12.43;83.89;99343.41;4114535;28;20381;-51
2022/10/12 09:25:01;;;;;;;11.00;2.45;;;;;;;12.41;83.74;99345.56;4117008;28;20248;-50
2022/10/12 09:27:23;;;;;;;8.25;2.20;;;;;;;12.38;84.55;99339.72;4118026;28;20206;-50
2022/10/12 09:29:27;;;;;;;5.88;2.20;;;;;;;12.61;84.04;99350.63;4117820;28;20699;-52
2022/10/12 09:31:51;;;;;;;5.70;3.08;;;;;;;12.55;83.87;99335.97;4104316;28;20194;-49
2022/10/12 09:33:57;;;;;;;4.50;2.38;;;;;;;12.18;83.60;99329.13;4102926;28;20738;-49
2022/10/12 09:35:59;;;;;;;5.72;2.45;;;;;;;11.84;85.23;99335.47;4123748;28;20279;-49
2022/10/12 09:38:01;;;;;;;15.32;2.90;;;;;;;12.27;85.22;99335.06;4107039;28;20297;-48
2022/10/12 09:40:03;;;;;;;4.10;2.42;;;;;;;12.08;85.43;99334.38;4126152;28;20252;-50
2022/10/12 09:42:05;;;;;;;5.50;2.20;;;;;;;12.30;86.09;99329.94;4119440;28;20565;-49
2022/10/12 09:44:14;;;;;;;3.88;2.40;;;;;;;12.57;85.24;99327.50;4105426;28;20218;-52
2022/10/12 09:46:20;;;;;;;6.47;2.47;;;;;;;12.41;85.29;99328.25;4118538;28;20256;-54
2022/10/12 09:48:23;;;;;;;6.32;2.80;;;;;;;12.66;83.46;99326.88;4089416;28;20554;-52
2022/10/12 09:50:51;;;;;;;5.63;3.20;;;;;;;13.31;83.14;99325.41;4103946;28;20301;-52